Decoded Metar for KBKF (BUCKLEY in CO, USA) (IATA:BKF) | Meteo·Mobile Aviation Weather
aviador You're here:

KBKF Decoded Metar

BUCKLEY in CO, USA
Report Time2018-10-22 08:58:00
UTC Time2018-10-22 09:31:28
Flight Rules vfr VFR
Wind200° at 07 kt
W.Decomp.*RWY 14: 4.3 kt HW 5.5 kt RCW
W.Rank200° ranks 3
Current wind is below 200° avg. (8.3)
Visibility9999 m
Phenomena:N/A
Clouds:Few 120 Hf
Few 220 Hf
Expected CloudBase > 3,600 ft AGL from Temp-Dew spread
CeilingNone
Temp07°C (ISA +3)
Dew Point-2°C (53% RH)
AAT2.2°C
QNH1022 hPa
Density Alt5,827 ft
Elevation5,663 ft
Report Wrong Elevation
Raw Report
KBKF 220858Z 20007KT 10SM FEW120 FEW220 07/M02 A3017 RMK AO2A
SLP164 T00691025 55001=

Extra information for KBKF:More info

Metar Taf Metar & Taf Last 4 Metars F.Rules Stats Wind Profile Meteogram Temp Stats Airport Information Weather charts Add Link Nearby VenuesMetar ALERT Operation Metar Decoded Social comments

AIRNAV info for KBKF